createdAt,value
2023-01-25T00:02:03.715Z,2.60
2023-01-25T00:06:12.328Z,2.60
2023-01-25T00:10:21.273Z,2.50
2023-01-25T00:14:29.900Z,2.50
2023-01-25T00:18:38.462Z,2.50
2023-01-25T00:22:47.015Z,2.60
2023-01-25T00:26:55.606Z,2.60
2023-01-25T00:31:05.992Z,2.50
2023-01-25T00:35:14.549Z,2.50
2023-01-25T00:39:23.588Z,2.50
2023-01-25T00:43:33.413Z,2.50
2023-01-25T00:47:54.458Z,2.50
2023-01-25T00:52:03.124Z,2.50
2023-01-25T00:56:11.779Z,2.40
2023-01-25T01:00:20.507Z,2.30
2023-01-25T01:04:29.193Z,2.30
2023-01-25T01:08:40.379Z,2.10
2023-01-25T01:12:49.360Z,2.20
2023-01-25T01:17:17.343Z,2.30
2023-01-25T01:21:25.974Z,2.40
2023-01-25T01:25:34.599Z,2.30
2023-01-25T01:30:02.552Z,2.30
2023-01-25T01:34:14.595Z,2.40
2023-01-25T01:38:43.021Z,2.40
2023-01-25T01:42:59.388Z,2.30
2023-01-25T01:47:11.019Z,2.20
2023-01-25T01:51:37.597Z,2.20
2023-01-25T01:55:46.169Z,2.10
2023-01-25T02:00:00.532Z,2.10
2023-01-25T02:04:10.200Z,2.20
2023-01-25T02:08:19.332Z,2.20
2023-01-25T02:12:28.510Z,2.30
2023-01-25T02:16:37.136Z,2.30
2023-01-25T02:20:48.341Z,2.30
2023-01-25T02:25:06.125Z,2.30
2023-01-25T02:29:16.299Z,2.20
2023-01-25T02:33:27.215Z,2.20
2023-01-25T02:37:36.214Z,2.20
2023-01-25T02:41:47.991Z,2.30
2023-01-25T02:45:59.811Z,2.30
2023-01-25T02:50:09.611Z,2.30
2023-01-25T02:54:20.821Z,2.30
2023-01-25T02:58:29.598Z,2.20
2023-01-25T03:02:38.392Z,2.20
2023-01-25T03:06:47.171Z,2.20
2023-01-25T03:11:00.218Z,2.20
2023-01-25T03:15:10.129Z,2.20
2023-01-25T03:19:18.829Z,2.30
2023-01-25T03:23:27.411Z,2.30
2023-01-25T03:27:56.315Z,2.30
2023-01-25T03:32:05.380Z,2.30
2023-01-25T03:36:14.114Z,2.30
2023-01-25T03:40:22.713Z,2.30
2023-01-25T03:44:50.695Z,2.30
2023-01-25T03:49:11.309Z,2.30
2023-01-25T03:53:22.226Z,2.20
2023-01-25T03:57:30.795Z,2.20
2023-01-25T04:01:39.690Z,2.20
2023-01-25T04:05:48.437Z,2.30
2023-01-25T04:09:57.017Z,2.20
2023-01-25T04:14:42.479Z,2.20
2023-01-25T04:18:35.363Z,2.30
2023-01-25T04:22:49.935Z,2.20
2023-01-25T04:26:58.571Z,2.20
2023-01-25T04:31:08.050Z,2.20
2023-01-25T04:35:19.952Z,2.10
2023-01-25T04:39:28.641Z,2.10
2023-01-25T04:43:37.369Z,2.00
2023-01-25T04:47:58.780Z,2.00
2023-01-25T04:52:07.436Z,2.00
2023-01-25T04:56:16.057Z,1.90
2023-01-25T05:00:28.882Z,1.90
2023-01-25T05:04:37.509Z,1.90
2023-01-25T05:08:46.140Z,1.90
2023-01-25T05:12:54.716Z,1.90
2023-01-25T05:17:03.330Z,2.00
2023-01-25T05:21:13.667Z,2.00
2023-01-25T05:25:39.787Z,1.70
2023-01-25T05:30:08.301Z,1.80
2023-01-25T05:34:16.928Z,1.70
2023-01-25T05:38:25.864Z,1.60
2023-01-25T05:42:34.508Z,1.50
2023-01-25T05:46:43.359Z,1.60
2023-01-25T05:50:51.923Z,1.60
2023-01-25T05:55:00.488Z,1.50
2023-01-25T05:59:10.748Z,1.40
2023-01-25T06:03:19.380Z,1.40
2023-01-25T06:07:28.105Z,1.30
2023-01-25T06:11:36.632Z,1.40
2023-01-25T06:15:46.939Z,1.40
2023-01-25T06:19:55.526Z,1.30
2023-01-25T06:24:05.374Z,1.40
2023-01-25T06:28:14.013Z,1.40
2023-01-25T06:32:24.170Z,1.30
2023-01-25T06:36:33.118Z,1.40
2023-01-25T06:40:41.747Z,1.40
2023-01-25T06:44:50.370Z,1.20
2023-01-25T06:48:59.007Z,1.10
2023-01-25T06:53:19.801Z,0.90
2023-01-25T06:57:40.483Z,0.90
2023-01-25T07:01:50.147Z,1.10
2023-01-25T07:06:02.287Z,1.40
2023-01-25T07:10:31.865Z,1.50
2023-01-25T07:14:40.538Z,1.30
2023-01-25T07:18:49.638Z,1.10
2023-01-25T07:23:02.054Z,1.00
2023-01-25T07:27:29.667Z,1.10
2023-01-25T07:31:38.264Z,1.10
2023-01-25T07:35:46.797Z,0.90
2023-01-25T07:39:57.003Z,0.90
2023-01-25T07:44:05.728Z,0.80
2023-01-25T07:48:14.286Z,1.00
2023-01-25T07:52:22.844Z,1.20
2023-01-25T07:56:37.842Z,1.00
2023-01-25T08:00:46.482Z,1.10
2023-01-25T08:04:55.261Z,1.00
2023-01-25T08:09:07.013Z,0.80
2023-01-25T08:13:35.199Z,0.60
2023-01-25T08:17:43.832Z,0.50
2023-01-25T08:21:52.832Z,0.60
2023-01-25T08:26:05.926Z,0.90
2023-01-25T08:30:14.752Z,0.80
2023-01-25T08:34:23.382Z,0.90
2023-01-25T08:38:32.551Z,1.10
2023-01-25T08:43:00.456Z,1.20
2023-01-25T08:47:09.025Z,1.30
2023-01-25T08:51:18.479Z,1.20
2023-01-25T08:55:27.106Z,1.10
2023-01-25T08:59:35.736Z,1.20
2023-01-25T09:03:46.412Z,1.20
2023-01-25T09:07:55.044Z,1.20
2023-01-25T09:12:03.668Z,1.30
2023-01-25T09:16:31.616Z,1.30
2023-01-25T09:20:40.903Z,1.30
2023-01-25T09:24:52.313Z,1.20
2023-01-25T09:29:01.275Z,1.20
2023-01-25T09:33:09.857Z,1.20
2023-01-25T09:37:18.397Z,1.20
2023-01-25T09:41:44.809Z,1.30
2023-01-25T09:45:53.456Z,1.30
2023-01-25T09:50:14.267Z,1.30
2023-01-25T09:54:42.314Z,1.40
2023-01-25T09:58:50.982Z,1.50
2023-01-25T10:03:37.839Z,1.60
2023-01-25T10:08:04.354Z,1.70
2023-01-25T10:12:18.440Z,1.70
2023-01-25T10:16:31.959Z,1.70
2023-01-25T10:20:55.754Z,1.60
2023-01-25T10:25:23.935Z,1.40
2023-01-25T10:29:53.648Z,1.10
2023-01-25T10:34:04.962Z,0.80
2023-01-25T10:38:34.458Z,0.80
2023-01-25T10:42:48.717Z,0.60
2023-01-25T10:47:07.412Z,0.60
2023-01-25T10:51:35.470Z,0.60
2023-01-25T10:55:47.270Z,0.80
2023-01-25T10:59:56.438Z,1.00
2023-01-25T11:04:26.951Z,1.10
2023-01-25T11:08:54.939Z,1.20
2023-01-25T11:13:19.544Z,1.30
2023-01-25T11:17:32.717Z,1.20
2023-01-25T11:21:44.482Z,1.30
2023-01-25T11:26:13.996Z,1.20
2023-01-25T11:30:22.826Z,1.10
2023-01-25T11:34:51.636Z,1.20
2023-01-25T11:39:22.693Z,1.20
2023-01-25T11:43:38.377Z,1.30
2023-01-25T11:48:02.161Z,1.20
2023-01-25T11:52:29.121Z,1.30
2023-01-25T11:57:19.527Z,1.30
2023-01-25T12:02:01.947Z,1.30
2023-01-25T12:06:30.134Z,1.30
2023-01-25T12:10:44.926Z,1.30
2023-01-25T12:15:20.467Z,1.30
2023-01-25T12:19:39.030Z,1.40
2023-01-25T12:23:56.845Z,1.40
2023-01-25T12:28:14.819Z,1.40
2023-01-25T12:32:26.726Z,1.30
2023-01-25T12:36:47.367Z,1.20
2023-01-25T12:41:03.135Z,0.90
2023-01-25T12:45:24.505Z,0.70
2023-01-25T12:49:44.968Z,0.80
2023-01-25T12:53:54.517Z,0.80
2023-01-25T12:58:14.953Z,0.80
2023-01-25T13:02:44.952Z,0.90
2023-01-25T13:07:02.607Z,1.00
2023-01-25T13:11:14.273Z,0.90
2023-01-25T13:15:46.372Z,0.80
2023-01-25T13:19:55.343Z,0.80
2023-01-25T13:24:22.400Z,0.90
2023-01-25T13:28:46.702Z,1.10
2023-01-25T13:32:58.531Z,1.00
2023-01-25T13:37:30.956Z,1.00
2023-01-25T13:41:42.654Z,1.00
2023-01-25T13:45:53.628Z,1.20
2023-01-25T13:50:05.345Z,1.30
2023-01-25T13:54:16.220Z,1.30
2023-01-25T13:58:30.807Z,1.20
2023-01-25T14:02:42.494Z,1.00
2023-01-25T14:06:52.652Z,1.10
2023-01-25T14:11:01.384Z,0.90
2023-01-25T14:15:25.184Z,0.90
2023-01-25T14:19:35.441Z,1.00
2023-01-25T14:23:44.273Z,0.80
2023-01-25T14:27:58.219Z,1.00
2023-01-25T14:32:07.164Z,0.80
2023-01-25T14:36:24.866Z,0.80
2023-01-25T14:40:28.036Z,0.90
2023-01-25T14:44:36.939Z,0.70
2023-01-25T14:48:45.566Z,0.80
2023-01-25T14:52:54.140Z,0.90
2023-01-25T14:57:05.842Z,1.10
2023-01-25T15:01:17.539Z,1.00
2023-01-25T15:05:31.458Z,1.10
2023-01-25T15:09:45.389Z,1.10
2023-01-25T15:14:02.131Z,1.00
2023-01-25T15:18:13.715Z,1.00
2023-01-25T15:22:23.167Z,1.00
2023-01-25T15:26:33.966Z,1.00
2023-01-25T15:30:42.648Z,1.10
2023-01-25T15:34:52.059Z,1.00
2023-01-25T15:39:00.966Z,1.10
2023-01-25T15:43:28.916Z,1.00
2023-01-25T15:47:58.599Z,0.70
2023-01-25T15:52:07.189Z,0.80
2023-01-25T15:56:27.879Z,0.90
2023-01-25T16:00:36.628Z,0.70
2023-01-25T16:04:45.182Z,0.60
2023-01-25T16:08:53.927Z,0.60
2023-01-25T16:13:02.564Z,0.50
2023-01-25T16:17:19.881Z,0.50
2023-01-25T16:21:28.521Z,0.60
2023-01-25T16:25:37.097Z,0.70
2023-01-25T16:29:45.738Z,0.80
2023-01-25T16:33:54.362Z,0.50
2023-01-25T16:38:02.990Z,0.50
2023-01-25T16:42:11.724Z,0.80
2023-01-25T16:46:23.261Z,0.60
2023-01-25T16:50:31.951Z,0.50
2023-01-25T16:54:40.427Z,0.50
2023-01-25T16:58:50.238Z,0.50
2023-01-25T17:02:59.987Z,0.60
2023-01-25T17:07:10.512Z,0.60
2023-01-25T17:11:19.913Z,0.50
2023-01-25T17:15:28.675Z,0.50
2023-01-25T17:19:37.282Z,0.50
2023-01-25T17:23:46.041Z,0.30
2023-01-25T17:28:14.079Z,0.40
2023-01-25T17:32:23.936Z,0.50
2023-01-25T17:36:32.661Z,0.50
2023-01-25T17:40:41.510Z,0.20
2023-01-25T17:44:50.027Z,0.40
2023-01-25T17:49:19.453Z,0.20
2023-01-25T17:53:28.074Z,0.10
2023-01-25T17:57:56.361Z,0.40
2023-01-25T18:02:06.389Z,0.00
2023-01-25T18:06:17.375Z,0.10
2023-01-25T18:10:25.930Z,0.00
2023-01-25T18:14:35.035Z,0.00
2023-01-25T18:18:44.928Z,0.10
2023-01-25T18:22:55.024Z,-0.10
2023-01-25T18:27:18.470Z,0.10
2023-01-25T18:31:27.515Z,-0.10
2023-01-25T18:35:36.249Z,-0.20
2023-01-25T18:39:46.390Z,0.00
2023-01-25T18:43:56.622Z,0.00
2023-01-25T18:48:06.768Z,-0.30
2023-01-25T18:52:16.633Z,-0.20
2023-01-25T18:56:27.078Z,-0.10
2023-01-25T19:00:36.411Z,0.00
2023-01-25T19:04:45.689Z,0.20
2023-01-25T19:09:13.738Z,0.10
2023-01-25T19:13:22.290Z,0.10
2023-01-25T19:17:32.225Z,0.10
2023-01-25T19:21:41.261Z,0.00
2023-01-25T19:25:54.747Z,0.00
2023-01-25T19:30:03.310Z,0.00
2023-01-25T19:34:11.964Z,0.00
2023-01-25T19:38:20.587Z,0.20
2023-01-25T19:42:29.115Z,0.10
2023-01-25T19:46:38.293Z,0.00
2023-01-25T19:50:46.883Z,-0.10
2023-01-25T19:54:55.455Z,0.20
2023-01-25T19:59:05.950Z,0.10
2023-01-25T20:03:16.615Z,0.00
2023-01-25T20:07:26.425Z,0.00
2023-01-25T20:11:35.352Z,0.10
2023-01-25T20:15:48.488Z,0.20
2023-01-25T20:19:57.216Z,-0.10
2023-01-25T20:24:06.843Z,-0.20
2023-01-25T20:28:15.396Z,-0.20
2023-01-25T20:32:32.738Z,-0.20
2023-01-25T20:36:35.419Z,-0.20
2023-01-25T20:40:44.049Z,-0.20
2023-01-25T20:44:52.679Z,-0.30
2023-01-25T20:49:02.186Z,-0.40
2023-01-25T20:53:10.752Z,-0.30
2023-01-25T20:57:19.293Z,-0.40
2023-01-25T21:01:50.411Z,-0.30
2023-01-25T21:06:00.821Z,-0.30
2023-01-25T21:10:10.698Z,-0.40
2023-01-25T21:14:20.315Z,-0.20
2023-01-25T21:18:38.016Z,-0.40
2023-01-25T21:23:06.144Z,-0.30
2023-01-25T21:27:14.702Z,-0.40
2023-01-25T21:31:26.306Z,-0.70
2023-01-25T21:35:35.017Z,-0.80
2023-01-25T21:39:43.626Z,-0.80
2023-01-25T21:44:12.465Z,-0.80
2023-01-25T21:48:22.629Z,-0.60
2023-01-25T21:52:31.221Z,-0.50
2023-01-25T21:56:39.848Z,-0.30
2023-01-25T22:00:48.478Z,-0.30
2023-01-25T22:04:57.115Z,-0.30
2023-01-25T22:09:05.777Z,-0.40
2023-01-25T22:13:14.466Z,-0.30
2023-01-25T22:17:24.733Z,-0.50
2023-01-25T22:21:33.875Z,-0.60
2023-01-25T22:25:42.502Z,-0.60
2023-01-25T22:29:51.130Z,-0.40
2023-01-25T22:34:00.691Z,-0.40
2023-01-25T22:38:28.665Z,-0.30
2023-01-25T22:42:37.309Z,-0.30
2023-01-25T22:47:05.275Z,-0.20
2023-01-25T22:51:16.632Z,-0.10
2023-01-25T22:55:25.300Z,0.10
2023-01-25T22:59:53.287Z,0.20
2023-01-25T23:04:02.729Z,0.30
2023-01-25T23:08:11.297Z,0.10
2023-01-25T23:12:39.353Z,0.20
2023-01-25T23:16:48.670Z,0.10
2023-01-25T23:20:57.313Z,0.10
2023-01-25T23:25:06.677Z,0.10
2023-01-25T23:29:15.527Z,0.20
2023-01-25T23:33:43.882Z,0.30
2023-01-25T23:37:52.511Z,0.30
2023-01-25T23:42:01.077Z,0.30
2023-01-25T23:46:10.016Z,0.20
2023-01-25T23:50:18.824Z,0.20
2023-01-25T23:54:27.463Z,0.20
2023-01-25T23:58:37.953Z,0.20
